Weather at Frankfurt am Main Airport

Public forecast

Using degrees Celsius for public forecast. Weather courtesy of forecast.io.

Current aviation weather report (METAR) for Frankfurt am Main Airport

Retrieved 2021/05/11 19:20 UTC (39 minutes ago):

EDDF 111920Z 18006KT 9999 FEW011 13/12 Q1009 NOSIG

Aviation forecast (TAF) for Frankfurt am Main Airport

Retrieved 2021/05/11 18:28 UTC (2 hours ago):

TAF EDDF 111700Z 1118/1224 26008KT 9999 FEW020 BKN040 PROB30 TEMPO 1212/1218 SHRA BKN030CB BECMG 1218/1221 VRB03KT